Time;durP1;ratioP1;P1;durP2;ratioP2;P2;SDS_P1;SDS_P2;PMS_P1;PMS_P2;Temp;Humidity;BMP_temperature;BMP_pressure;BME280_temperature;BME280_humidity;BME280_pressure;Samples;Min_cycle;Max_cycle;Signal;HPM_P1;HPM_P2
2023/07/20 00:02:20;;;;;;;2.88;2.58;;;16.50;99.90;;;;;;5054009;28;20495;-53
2023/07/20 00:04:46;;;;;;;7.07;3.75;;;16.50;99.90;;;;;;5052870;28;20539;-53
2023/07/20 00:07:11;;;;;;;2.90;2.38;;;16.50;99.90;;;;;;5056005;28;20385;-54
2023/07/20 00:09:37;;;;;;;7.40;3.22;;;16.50;99.90;;;;;;5050281;28;20017;-54
2023/07/20 00:12:03;;;;;;;8.75;3.67;;;16.50;99.90;;;;;;5063176;28;20035;-50
2023/07/20 00:14:29;;;;;;;4.13;3.22;;;16.50;99.90;;;;;;5053070;28;20104;-53
2023/07/20 00:16:56;;;;;;;3.70;2.58;;;16.40;99.90;;;;;;5055533;28;20070;-53
2023/07/20 00:19:23;;;;;;;3.30;2.95;;;16.40;99.90;;;;;;5051961;28;20029;-50
2023/07/20 00:21:49;;;;;;;5.05;2.72;;;16.40;99.90;;;;;;5049133;28;20160;-53
2023/07/20 00:24:14;;;;;;;2.97;2.42;;;16.40;99.90;;;;;;5051740;28;20532;-53
2023/07/20 00:26:40;;;;;;;3.13;2.83;;;16.40;99.90;;;;;;5052427;28;20021;-51
2023/07/20 00:29:05;;;;;;;3.03;2.42;;;16.40;99.90;;;;;;5052976;28;20528;-51
2023/07/20 00:31:31;;;;;;;5.95;2.20;;;16.40;99.90;;;;;;5052391;28;20025;-52
2023/07/20 00:33:57;;;;;;;2.17;1.98;;;16.40;99.90;;;;;;5052524;28;20417;-52
2023/07/20 00:36:22;;;;;;;2.33;2.15;;;16.40;99.90;;;;;;5052407;28;20024;-56
2023/07/20 00:38:48;;;;;;;4.32;2.20;;;16.40;99.90;;;;;;5051213;28;20029;-50
2023/07/20 00:41:14;;;;;;;2.30;2.10;;;16.30;99.90;;;;;;5049727;28;20504;-53
2023/07/20 00:43:40;;;;;;;1.70;1.60;;;16.30;99.90;;;;;;5052267;28;20017;-53
2023/07/20 00:46:05;;;;;;;1.83;1.70;;;16.30;99.90;;;;;;5050580;28;20021;-53
2023/07/20 00:48:32;;;;;;;1.50;1.40;;;16.30;99.90;;;;;;5058235;28;20099;-48
2023/07/20 00:51:00;;;;;;;1.73;1.63;;;16.20;99.90;;;;;;5053861;28;20043;-52
2023/07/20 00:53:26;;;;;;;1.48;1.08;;;16.20;99.90;;;;;;5060624;28;20473;-52
2023/07/20 00:55:51;;;;;;;1.08;1.08;;;16.20;99.90;;;;;;5059059;28;20102;-53
2023/07/20 00:58:17;;;;;;;3.65;0.90;;;16.10;99.90;;;;;;5051698;28;20096;-54
2023/07/20 01:00:44;;;;;;;1.27;0.85;;;16.10;99.90;;;;;;5053644;28;20171;-54
2023/07/20 01:03:09;;;;;;;1.63;1.30;;;16.10;99.90;;;;;;5053373;28;20108;-53
2023/07/20 01:06:16;;;;;;;1.00;0.85;;;16.10;99.90;;;;;;5049817;28;20099;-51
2023/07/20 01:09:11;;;;;;;;;;;16.10;99.90;;;;;;5067878;28;20516;-53
2023/07/20 01:11:45;;;;;;;0.82;0.82;;;16.00;99.90;;;;;;5055287;28;20016;-53
2023/07/20 01:14:14;;;;;;;1.42;1.05;;;16.00;99.90;;;;;;5053201;28;20055;-54
2023/07/20 01:16:39;;;;;;;1.08;1.00;;;15.90;99.90;;;;;;5040964;28;20068;-51
2023/07/20 01:19:05;;;;;;;1.50;1.30;;;15.90;99.90;;;;;;5050818;28;20425;-51
2023/07/20 01:22:03;;;;;;;0.93;0.93;;;15.90;99.90;;;;;;5053583;28;20568;-51
2023/07/20 01:24:44;;;;;;;1.10;1.00;;;15.90;99.90;;;;;;5050097;28;20528;-53
2023/07/20 01:27:31;;;;;;;1.70;1.00;;;15.80;99.90;;;;;;5051366;28;20083;-54
2023/07/20 01:30:14;;;;;;;1.10;1.00;;;15.80;99.90;;;;;;5053791;28;20031;-53
2023/07/20 01:32:42;;;;;;;0.85;0.85;;;15.80;99.90;;;;;;5050718;28;20557;-54
2023/07/20 01:35:10;;;;;;;1.73;1.10;;;15.80;99.90;;;;;;5052728;28;20017;-52
2023/07/20 01:37:38;;;;;;;1.67;1.58;;;15.70;99.90;;;;;;5050161;28;20082;-52
2023/07/20 01:40:04;;;;;;;1.30;1.20;;;15.70;99.90;;;;;;5051041;28;20020;-53
2023/07/20 01:42:30;;;;;;;4.82;1.13;;;15.60;99.90;;;;;;5046107;28;20025;-54
2023/07/20 01:44:56;;;;;;;2.17;1.42;;;15.50;99.90;;;;;;5049425;28;20532;-53
2023/07/20 01:47:22;;;;;;;2.42;1.50;;;15.60;99.90;;;;;;5051960;28;20029;-53
2023/07/20 01:49:47;;;;;;;1.80;1.70;;;15.60;99.90;;;;;;5049809;28;20032;-52
2023/07/20 01:52:13;;;;;;;1.45;1.35;;;15.50;99.90;;;;;;5052278;28;20448;-52
2023/07/20 01:54:41;;;;;;;3.05;1.38;;;15.50;99.90;;;;;;5048055;28;20029;-53
2023/07/20 01:57:07;;;;;;;1.85;1.33;;;15.60;99.90;;;;;;5039235;28;20029;-52
2023/07/20 01:59:33;;;;;;;1.27;1.17;;;15.60;99.90;;;;;;5048454;28;20032;-54
2023/07/20 02:01:58;;;;;;;3.53;1.58;;;15.50;99.90;;;;;;5051242;28;20090;-55
2023/07/20 02:04:24;;;;;;;3.25;1.30;;;15.60;99.90;;;;;;5050386;28;20078;-53
2023/07/20 02:06:49;;;;;;;5.38;1.70;;;15.60;99.90;;;;;;5051028;28;20020;-52
2023/07/20 02:09:15;;;;;;;1.98;1.50;;;15.60;99.90;;;;;;5033094;28;20470;-54
2023/07/20 02:11:41;;;;;;;4.00;1.50;;;15.60;99.90;;;;;;5047406;28;20505;-50
2023/07/20 02:14:06;;;;;;;2.38;2.17;;;15.50;99.90;;;;;;5054761;28;20032;-53
2023/07/20 02:16:32;;;;;;;1.38;1.02;;;15.50;99.90;;;;;;5048973;28;20033;-53
2023/07/20 02:18:58;;;;;;;3.80;1.33;;;15.50;99.90;;;;;;5048838;28;20500;-51
2023/07/20 02:21:23;;;;;;;1.35;1.13;;;15.50;99.90;;;;;;5037713;28;20144;-54
2023/07/20 02:23:50;;;;;;;1.77;1.20;;;15.50;99.90;;;;;;5046803;28;20033;-54
2023/07/20 02:26:16;;;;;;;1.05;1.05;;;15.50;99.90;;;;;;5048429;28;20029;-51
2023/07/20 02:28:41;;;;;;;3.10;1.45;;;15.50;99.90;;;;;;5047552;28;20505;-54
2023/07/20 02:31:07;;;;;;;2.00;1.80;;;15.50;99.90;;;;;;5050539;28;20438;-52
2023/07/20 02:33:33;;;;;;;1.52;1.42;;;15.50;99.90;;;;;;5051509;28;20027;-52
2023/07/20 02:35:58;;;;;;;2.20;2.00;;;15.40;99.90;;;;;;5050249;28;20381;-54
2023/07/20 02:38:24;;;;;;;2.10;1.60;;;15.40;99.90;;;;;;5049063;28;20389;-53
2023/07/20 02:40:51;;;;;;;2.20;1.48;;;15.40;99.90;;;;;;5050632;28;20465;-53
2023/07/20 02:43:17;;;;;;;1.93;1.77;;;15.40;99.90;;;;;;5049320;28;20025;-53
2023/07/20 02:45:43;;;;;;;3.55;2.00;;;15.40;99.90;;;;;;5047178;28;20025;-49
2023/07/20 02:48:09;;;;;;;2.55;2.35;;;15.30;99.90;;;;;;5049195;28;20108;-53
2023/07/20 02:50:35;;;;;;;1.95;1.77;;;15.20;99.90;;;;;;5040509;28;20442;-53
2023/07/20 02:53:01;;;;;;;2.53;2.05;;;15.20;99.90;;;;;;5049232;28;20029;-53
2023/07/20 02:55:27;;;;;;;3.35;1.98;;;15.20;99.90;;;;;;5048250;28;20055;-54
2023/07/20 02:57:52;;;;;;;2.40;2.20;;;15.20;99.90;;;;;;5042648;28;20025;-52
2023/07/20 03:00:19;;;;;;;6.30;2.72;;;15.30;99.90;;;;;;5047178;28;20389;-49
2023/07/20 03:02:47;;;;;;;5.22;3.30;;;15.30;99.90;;;;;;5050631;28;20024;-53
2023/07/20 03:05:13;;;;;;;5.00;2.80;;;15.30;99.90;;;;;;5048142;28;20039;-51
2023/07/20 03:07:39;;;;;;;6.13;3.30;;;15.30;99.90;;;;;;5045947;28;20551;-54
2023/07/20 03:10:09;;;;;;;4.75;3.10;;;15.20;99.90;;;;;;5048326;28;20111;-51
2023/07/20 03:12:35;;;;;;;5.95;3.03;;;15.20;99.90;;;;;;5049097;28;20041;-48
2023/07/20 03:15:04;;;;;;;4.75;2.40;;;15.20;99.90;;;;;;5048980;28;20504;-55
2023/07/20 03:17:29;;;;;;;4.78;2.70;;;15.30;99.90;;;;;;5054097;28;20021;-54
2023/07/20 03:19:55;;;;;;;3.35;2.72;;;15.30;99.90;;;;;;5054002;28;20070;-51
2023/07/20 03:22:21;;;;;;;3.70;2.80;;;15.30;99.90;;;;;;5058283;28;20124;-52
2023/07/20 03:24:47;;;;;;;7.03;3.25;;;15.20;99.90;;;;;;5061585;28;20022;-53
2023/07/20 03:27:13;;;;;;;5.07;3.35;;;15.20;99.90;;;;;;5053637;28;20401;-52
2023/07/20 03:29:39;;;;;;;3.03;2.72;;;15.10;99.90;;;;;;5053111;28;20116;-52
2023/07/20 03:32:05;;;;;;;5.68;3.63;;;15.10;99.90;;;;;;5059749;28;20032;-53
2023/07/20 03:34:31;;;;;;;3.83;3.05;;;15.10;99.90;;;;;;5052694;28;20017;-53
2023/07/20 03:36:57;;;;;;;4.70;2.90;;;15.20;99.90;;;;;;5061876;28;20024;-51
2023/07/20 03:39:23;;;;;;;3.88;2.50;;;15.10;99.90;;;;;;5075358;28;20025;-58
2023/07/20 03:41:48;;;;;;;4.35;2.75;;;15.20;99.90;;;;;;5051365;28;20025;-52
2023/07/20 03:44:14;;;;;;;3.25;2.50;;;15.20;99.90;;;;;;5053117;28;20017;-55
2023/07/20 03:46:39;;;;;;;2.97;2.70;;;15.10;99.90;;;;;;5045989;28;20037;-54
2023/07/20 03:49:06;;;;;;;3.33;2.33;;;15.10;99.90;;;;;;5054520;28;20029;-52
2023/07/20 03:51:32;;;;;;;3.15;2.72;;;15.10;99.90;;;;;;5051159;28;20032;-56
2023/07/20 03:53:58;;;;;;;3.08;2.50;;;15.10;99.90;;;;;;5054911;28;20035;-47
2023/07/20 03:56:24;;;;;;;2.38;2.17;;;15.10;99.90;;;;;;5061957;28;20021;-54
2023/07/20 03:58:50;;;;;;;5.70;3.17;;;15.00;99.90;;;;;;5055206;28;20497;-53
2023/07/20 04:01:16;;;;;;;3.05;2.78;;;15.00;99.90;;;;;;5045423;28;20362;-51
2023/07/20 04:03:42;;;;;;;2.63;2.40;;;14.90;99.90;;;;;;5054805;28;20021;-52
2023/07/20 04:06:09;;;;;;;4.50;2.22;;;14.90;99.90;;;;;;5054004;28;20025;-52
2023/07/20 04:08:38;;;;;;;3.90;2.60;;;14.90;99.90;;;;;;5052177;28;20108;-50
2023/07/20 04:11:03;;;;;;;3.10;2.80;;;14.90;99.90;;;;;;5056291;28;20043;-53
2023/07/20 04:13:33;;;;;;;4.55;3.17;;;14.90;99.90;;;;;;5052158;28;20021;-53
2023/07/20 04:15:58;;;;;;;4.10;2.92;;;15.00;99.90;;;;;;5065174;28;20478;-52
2023/07/20 04:18:24;;;;;;;6.40;3.45;;;15.00;99.90;;;;;;5050530;28;20044;-52
2023/07/20 04:20:50;;;;;;;3.90;3.13;;;14.90;99.90;;;;;;5055381;28;20482;-53
2023/07/20 04:23:16;;;;;;;3.25;2.85;;;14.90;99.90;;;;;;5050328;28;20049;-49
2023/07/20 04:25:42;;;;;;;5.50;2.83;;;14.90;99.90;;;;;;5053943;28;20016;-53
2023/07/20 04:28:10;;;;;;;3.22;2.90;;;14.90;99.90;;;;;;5052550;28;20024;-50
2023/07/20 04:30:37;;;;;;;4.88;3.08;;;15.00;99.90;;;;;;5061401;28;20470;-53
2023/07/20 04:33:03;;;;;;;5.50;3.85;;;15.00;99.90;;;;;;5047042;28;20032;-57
2023/07/20 04:35:50;;;;;;;5.43;2.95;;;15.00;99.90;;;;;;5048643;28;20148;-58
2023/07/20 04:38:17;;;;;;;4.60;3.03;;;15.00;99.90;;;;;;5057805;28;20024;-54
2023/07/20 04:40:46;;;;;;;7.40;3.90;;;15.00;99.90;;;;;;5042432;28;20145;-49
2023/07/20 04:43:13;;;;;;;4.55;3.47;;;15.00;99.90;;;;;;5054200;28;20028;-54
2023/07/20 04:45:39;;;;;;;7.25;3.63;;;15.00;99.90;;;;;;5064546;28;20131;-50
2023/07/20 04:48:13;;;;;;;4.82;3.03;;;15.10;99.90;;;;;;5074068;28;20496;-52
2023/07/20 04:50:41;;;;;;;3.50;3.17;;;15.10;99.90;;;;;;5072464;28;20032;-53
2023/07/20 04:53:07;;;;;;;4.63;3.75;;;15.10;99.90;;;;;;5073968;28;20528;-54
2023/07/20 04:55:36;;;;;;;3.47;3.17;;;15.10;99.90;;;;;;5072668;28;20135;-54
2023/07/20 04:58:03;;;;;;;6.57;3.42;;;15.20;99.90;;;;;;5073868;28;20481;-49
2023/07/20 05:00:29;;;;;;;5.10;3.08;;;15.20;99.90;;;;;;5064633;28;20035;-53
2023/07/20 05:02:55;;;;;;;3.42;3.00;;;15.20;99.90;;;;;;5051057;28;20028;-52
2023/07/20 05:05:21;;;;;;;3.25;2.85;;;15.20;99.90;;;;;;5052837;28;20017;-53
2023/07/20 05:07:47;;;;;;;4.13;2.33;;;15.20;99.90;;;;;;5070035;28;20023;-51
2023/07/20 05:10:13;;;;;;;2.80;2.60;;;15.30;99.90;;;;;;5073626;28;20024;-53
2023/07/20 05:12:38;;;;;;;4.30;2.13;;;15.40;99.90;;;;;;5063856;28;20040;-52
2023/07/20 05:15:04;;;;;;;3.15;2.28;;;15.40;99.90;;;;;;5073507;28;20024;-54
2023/07/20 05:17:30;;;;;;;2.10;1.70;;;15.40;99.90;;;;;;5073462;28;20025;-53
2023/07/20 05:19:55;;;;;;;5.78;2.55;;;15.40;99.90;;;;;;5069584;28;20477;-42
2023/07/20 05:22:21;;;;;;;1.90;1.48;;;15.50;99.90;;;;;;5072027;28;20401;-41
2023/07/20 05:24:47;;;;;;;2.35;1.65;;;15.60;99.90;;;;;;5073285;28;20500;-49
2023/07/20 05:27:13;;;;;;;3.35;1.48;;;15.70;99.90;;;;;;5064024;28;21521;-43
2023/07/20 05:29:44;;;;;;;1.30;1.20;;;15.70;99.90;;;;;;5044319;28;20521;-41
2023/07/20 05:32:10;;;;;;;1.38;1.27;;;15.70;99.90;;;;;;5033392;28;20018;-47
2023/07/20 05:34:35;;;;;;;3.10;1.50;;;15.80;99.90;;;;;;5056758;28;20099;-40
2023/07/20 05:37:01;;;;;;;4.43;0.90;;;15.90;99.90;;;;;;5053204;28;20485;-42
2023/07/20 05:39:26;;;;;;;1.48;1.02;;;16.00;99.90;;;;;;5051706;28;20029;-40
2023/07/20 05:41:52;;;;;;;1.15;0.95;;;16.20;99.90;;;;;;5051232;28;20025;-44
2023/07/20 05:44:18;;;;;;;0.88;0.88;;;16.30;99.90;;;;;;5052814;28;20477;-42
2023/07/20 05:46:43;;;;;;;0.77;0.77;;;16.30;99.90;;;;;;5052284;28;20039;-41
2023/07/20 05:49:09;;;;;;;1.15;0.50;;;16.40;99.90;;;;;;5052890;28;20537;-43
2023/07/20 05:51:36;;;;;;;2.50;1.33;;;16.40;99.90;;;;;;5053194;28;20017;-40
2023/07/20 05:54:01;;;;;;;1.38;0.70;;;16.40;99.90;;;;;;5053149;28;20481;-43
2023/07/20 05:56:27;;;;;;;1.08;0.70;;;16.30;99.90;;;;;;5052316;28;20035;-46
2023/07/20 05:58:53;;;;;;;3.30;0.70;;;16.40;99.90;;;;;;5052573;28;20029;-43
2023/07/20 06:01:19;;;;;;;1.10;0.80;;;16.50;99.90;;;;;;5052712;28;20033;-44
2023/07/20 06:03:44;;;;;;;1.15;0.60;;;16.50;99.90;;;;;;5052757;28;20476;-43
2023/07/20 06:06:11;;;;;;;1.00;0.80;;;16.70;99.90;;;;;;5052756;28;20096;-41
2023/07/20 06:08:38;;;;;;;1.23;0.70;;;16.60;99.90;;;;;;5052718;28;20028;-44
2023/07/20 06:11:03;;;;;;;0.65;0.43;;;16.70;99.90;;;;;;5052924;28;20473;-42
2023/07/20 06:13:29;;;;;;;1.70;0.95;;;16.70;99.90;;;;;;5052606;28;20032;-42
2023/07/20 06:15:55;;;;;;;0.50;0.50;;;16.90;99.90;;;;;;5050046;28;20032;-44
2023/07/20 06:18:22;;;;;;;2.05;0.70;;;17.00;99.90;;;;;;5052232;28;20120;-44
2023/07/20 06:20:52;;;;;;;3.63;0.65;;;17.00;99.90;;;;;;5051561;28;20367;-46
2023/07/20 06:23:19;;;;;;;0.55;0.50;;;17.10;99.90;;;;;;5047538;28;20037;-42
2023/07/20 06:25:45;;;;;;;8.43;0.85;;;17.30;99.90;;;;;;5051147;28;20025;-41
2023/07/20 06:28:11;;;;;;;4.90;0.60;;;18.20;99.90;;;;;;5052703;28;20023;-41
2023/07/20 06:30:37;;;;;;;1.13;0.85;;;19.10;99.90;;;;;;5052808;28;20021;-42
2023/07/20 06:33:03;;;;;;;1.23;0.50;;;19.60;99.90;;;;;;5051641;28;20113;-48
2023/07/20 06:35:28;;;;;;;0.40;0.38;;;19.50;99.90;;;;;;5049804;28;20108;-42
2023/07/20 06:37:54;;;;;;;0.38;0.38;;;19.30;99.90;;;;;;5037878;28;20496;-43
2023/07/20 06:40:20;;;;;;;1.48;0.35;;;19.10;99.90;;;;;;5033311;28;20032;-44
2023/07/20 06:42:46;;;;;;;1.45;0.45;;;18.80;99.90;;;;;;5040302;28;20413;-46
2023/07/20 06:45:12;;;;;;;2.58;0.30;;;18.60;99.90;;;;;;5052384;28;20027;-43
2023/07/20 06:47:39;;;;;;;0.40;0.40;;;18.60;99.90;;;;;;5052176;28;20020;-43
2023/07/20 06:50:06;;;;;;;0.95;0.43;;;19.00;99.90;;;;;;5061600;28;20434;-46
2023/07/20 06:52:32;;;;;;;0.40;0.40;;;19.80;99.90;;;;;;5068853;28;20025;-45
2023/07/20 06:54:58;;;;;;;1.27;0.50;;;20.90;99.90;;;;;;5056531;28;20082;-42
2023/07/20 06:57:23;;;;;;;0.45;0.45;;;21.80;99.90;;;;;;5074939;28;20108;-45
2023/07/20 06:59:49;;;;;;;3.50;0.50;;;22.20;99.90;;;;;;5068544;28;20132;-42
2023/07/20 07:02:15;;;;;;;0.90;0.47;;;22.40;99.90;;;;;;5075873;28;20013;-45
2023/07/20 07:04:42;;;;;;;2.45;0.20;;;22.80;99.90;;;;;;5073286;28;20104;-43
2023/07/20 07:07:09;;;;;;;1.80;0.85;;;23.60;99.90;;;;;;5066455;28;20547;-44
2023/07/20 07:09:34;;;;;;;0.47;0.47;;;24.50;99.90;;;;;;5058099;28;20051;-41
2023/07/20 07:12:00;;;;;;;0.30;0.20;;;25.10;99.90;;;;;;5064241;28;20021;-47
2023/07/20 07:14:26;;;;;;;0.22;0.22;;;25.30;99.10;;;;;;5046005;28;20044;-45
2023/07/20 07:16:51;;;;;;;0.30;0.30;;;25.10;99.40;;;;;;5049164;28;20078;-44
2023/07/20 07:19:17;;;;;;;0.30;0.20;;;25.30;99.40;;;;;;5055645;28;20025;-42
2023/07/20 07:21:43;;;;;;;0.38;0.30;;;25.20;98.60;;;;;;5065112;28;20090;-39
2023/07/20 07:24:09;;;;;;;1.77;0.80;;;25.00;98.10;;;;;;5064916;28;20047;-43
2023/07/20 07:26:36;;;;;;;1.33;1.17;;;24.60;98.20;;;;;;5059859;28;20033;-42
2023/07/20 07:29:02;;;;;;;1.58;1.02;;;24.20;99.90;;;;;;5056424;28;20468;-40
2023/07/20 07:31:30;;;;;;;1.65;0.32;;;23.10;99.90;;;;;;5055445;28;20100;-49
2023/07/20 07:33:55;;;;;;;;;;;22.00;99.90;;;;;;5055382;28;20033;-40
2023/07/20 07:36:21;;;;;;;0.63;0.35;;;21.80;99.90;;;;;;5059806;28;20296;-40
2023/07/20 07:38:47;;;;;;;0.85;0.40;;;22.10;99.90;;;;;;5075229;28;20039;-39
2023/07/20 07:41:13;;;;;;;1.05;0.40;;;22.10;99.90;;;;;;5059290;28;20116;-43
2023/07/20 07:43:39;;;;;;;1.35;0.60;;;21.90;99.90;;;;;;5048836;28;20033;-43
2023/07/20 07:46:05;;;;;;;5.30;0.50;;;21.60;99.90;;;;;;5058032;28;20365;-46
2023/07/20 07:48:31;;;;;;;0.55;0.47;;;21.10;99.90;;;;;;5050527;28;20385;-42
2023/07/20 07:50:56;;;;;;;1.20;0.50;;;20.90;99.90;;;;;;5061329;28;20041;-40
2023/07/20 07:53:22;;;;;;;0.25;0.20;;;21.00;99.90;;;;;;5051906;28;20044;-40
2023/07/20 07:55:48;;;;;;;0.57;0.40;;;21.00;99.90;;;;;;5046863;28;20528;-43
2023/07/20 07:58:14;;;;;;;0.40;0.40;;;21.00;99.90;;;;;;5053484;28;20549;-41
2023/07/20 08:00:40;;;;;;;0.60;0.32;;;21.00;99.90;;;;;;5075034;28;20024;-43
2023/07/20 08:03:08;;;;;;;1.35;0.32;;;21.10;99.90;;;;;;5043072;28;20394;-45
2023/07/20 08:05:34;;;;;;;0.40;0.38;;;21.10;99.90;;;;;;5041291;28;20021;-42
2023/07/20 08:08:01;;;;;;;0.50;0.50;;;21.50;99.90;;;;;;5051485;28;20040;-47
2023/07/20 08:10:26;;;;;;;0.45;0.35;;;21.40;99.90;;;;;;5054266;28;20028;-43
2023/07/20 08:12:52;;;;;;;0.50;0.22;;;21.40;99.90;;;;;;5054750;28;20021;-40
2023/07/20 08:15:18;;;;;;;0.30;0.30;;;21.20;99.90;;;;;;5054170;28;20029;-46
2023/07/20 08:17:44;;;;;;;1.65;0.52;;;21.30;99.90;;;;;;5036986;28;20394;-42
2023/07/20 08:20:26;;;;;;;0.20;0.20;;;21.60;99.90;;;;;;5054464;28;20025;-44
2023/07/20 08:22:54;;;;;;;0.73;0.30;;;22.10;99.90;;;;;;5054405;28;20133;-43
2023/07/20 08:25:23;;;;;;;0.50;0.30;;;22.50;99.90;;;;;;5054441;28;20027;-45
2023/07/20 08:27:48;;;;;;;0.28;0.28;;;22.40;99.90;;;;;;5054768;28;20539;-41
2023/07/20 08:30:14;;;;;;;1.20;0.50;;;21.90;99.90;;;;;;5054704;28;20024;-43
2023/07/20 08:32:40;;;;;;;0.28;0.28;;;21.80;99.90;;;;;;5054343;28;20025;-43
2023/07/20 08:35:06;;;;;;;0.20;0.20;;;21.80;99.90;;;;;;5054558;28;20028;-43
2023/07/20 08:37:32;;;;;;;1.27;0.20;;;22.10;99.90;;;;;;5054287;28;20074;-42
2023/07/20 08:39:57;;;;;;;0.20;0.20;;;22.10;99.40;;;;;;5054473;28;20024;-43
2023/07/20 08:42:23;;;;;;;0.52;0.20;;;22.10;99.70;;;;;;5054457;28;20104;-54
2023/07/20 08:44:51;;;;;;;0.22;0.22;;;22.40;99.50;;;;;;5053173;28;20488;-54
2023/07/20 08:47:17;;;;;;;0.30;0.20;;;22.50;98.80;;;;;;5054104;28;20025;-55
2023/07/20 08:49:44;;;;;;;0.43;0.40;;;22.90;98.60;;;;;;5054081;28;20104;-53
2023/07/20 08:52:10;;;;;;;0.38;0.35;;;23.40;98.10;;;;;;5054065;28;20078;-55
2023/07/20 08:54:37;;;;;;;0.93;0.30;;;23.20;97.90;;;;;;5054025;28;20029;-55
2023/07/20 08:57:04;;;;;;;0.17;0.17;;;23.40;97.60;;;;;;5054226;28;20530;-55
2023/07/20 08:59:30;;;;;;;;;;;23.40;97.80;;;;;;5054254;28;20036;-51
2023/07/20 09:01:57;;;;;;;0.20;0.20;;;24.00;97.60;;;;;;5053794;28;20387;-50
2023/07/20 09:04:24;;;;;;;1.20;0.20;;;24.90;97.50;;;;;;5053681;28;20025;-52
2023/07/20 09:06:50;;;;;;;0.40;0.40;;;25.60;96.50;;;;;;5053721;28;20032;-53
2023/07/20 09:09:16;;;;;;;0.75;0.65;;;25.70;95.90;;;;;;5053678;28;20036;-52
2023/07/20 09:11:42;;;;;;;0.30;0.20;;;25.20;96.70;;;;;;5053939;28;20033;-49
2023/07/20 09:14:09;;;;;;;0.20;0.20;;;25.00;96.20;;;;;;5052869;28;20044;-52
2023/07/20 09:16:52;;;;;;;0.15;0.15;;;25.40;95.50;;;;;;5053538;28;20041;-49
2023/07/20 09:19:18;;;;;;;0.30;0.30;;;25.80;95.70;;;;;;5053556;28;20031;-52
2023/07/20 09:21:51;;;;;;;0.30;0.22;;;25.30;94.90;;;;;;5053475;28;20452;-50
2023/07/20 09:24:18;;;;;;;0.80;0.30;;;25.30;95.20;;;;;;5053366;28;20112;-49
2023/07/20 09:26:45;;;;;;;0.82;0.35;;;24.70;95.00;;;;;;5053385;28;20108;-51
2023/07/20 09:29:11;;;;;;;0.95;0.30;;;24.20;96.50;;;;;;5053411;28;20448;-53
2023/07/20 09:31:38;;;;;;;0.40;0.20;;;23.20;97.60;;;;;;5053338;28;20029;-54
2023/07/20 09:34:04;;;;;;;0.45;0.40;;;22.50;98.60;;;;;;5053206;28;20024;-54
2023/07/20 09:36:34;;;;;;;0.50;0.50;;;22.30;98.80;;;;;;5053276;28;20060;-54
2023/07/20 09:39:01;;;;;;;1.27;0.40;;;22.10;98.90;;;;;;5053501;28;20777;-50
2023/07/20 09:41:26;;;;;;;0.93;0.47;;;21.80;99.60;;;;;;5053305;28;20039;-51
2023/07/20 09:43:53;;;;;;;0.20;0.20;;;21.60;99.80;;;;;;5053051;28;20041;-52
2023/07/20 09:46:20;;;;;;;1.10;0.25;;;21.40;99.90;;;;;;5053108;28;20036;-50
2023/07/20 09:48:55;;;;;;;0.40;0.30;;;21.10;99.90;;;;;;5053050;28;20025;-51
2023/07/20 09:51:23;;;;;;;0.88;0.60;;;21.20;99.50;;;;;;5053008;28;20584;-51
2023/07/20 09:53:49;;;;;;;4.57;0.30;;;21.30;99.90;;;;;;5052888;28;20089;-52
2023/07/20 09:56:17;;;;;;;1.75;0.50;;;21.60;99.40;;;;;;5053124;28;20381;-54
2023/07/20 09:58:45;;;;;;;3.13;0.35;;;21.90;98.80;;;;;;5052827;28;20028;-51
2023/07/20 10:01:14;;;;;;;0.20;0.20;;;21.90;98.00;;;;;;5051816;28;20058;-53
2023/07/20 10:03:44;;;;;;;0.35;0.35;;;22.00;97.80;;;;;;5052879;28;20375;-49
2023/07/20 10:06:15;;;;;;;2.00;0.40;;;22.00;98.80;;;;;;5052589;28;20029;-52
2023/07/20 10:08:42;;;;;;;2.08;0.45;;;21.90;99.50;;;;;;5052555;28;20036;-53
2023/07/20 10:11:09;;;;;;;2.20;0.47;;;21.80;99.70;;;;;;5052488;28;20075;-47
2023/07/20 10:13:39;;;;;;;1.77;0.20;;;22.00;98.90;;;;;;5051343;28;20033;-52
2023/07/20 10:16:36;;;;;;;2.05;0.43;;;22.10;98.90;;;;;;5052559;28;20079;-52
2023/07/20 10:19:11;;;;;;;1.38;0.52;;;22.50;98.50;;;;;;5052557;28;20032;-52
2023/07/20 10:21:42;;;;;;;2.00;0.20;;;22.60;98.60;;;;;;5052353;28;20397;-53
2023/07/20 10:24:08;;;;;;;0.28;0.28;;;22.60;97.90;;;;;;5053468;28;20021;-50
2023/07/20 10:26:34;;;;;;;0.30;0.30;;;22.90;98.60;;;;;;5059471;28;20055;-54
2023/07/20 10:29:01;;;;;;;1.30;0.40;;;23.70;98.30;;;;;;5059153;28;20021;-54
2023/07/20 10:31:28;;;;;;;1.55;0.43;;;24.40;97.00;;;;;;5057976;28;20055;-51
2023/07/20 10:33:58;;;;;;;2.03;0.50;;;24.50;97.30;;;;;;5049665;28;20021;-53
2023/07/20 10:36:27;;;;;;;0.30;0.30;;;24.20;97.30;;;;;;5039407;28;20041;-52
2023/07/20 10:38:55;;;;;;;4.57;0.68;;;23.60;97.80;;;;;;5039376;28;20029;-54
2023/07/20 10:41:24;;;;;;;1.60;0.60;;;22.90;98.10;;;;;;5039243;28;20052;-53
2023/07/20 10:43:50;;;;;;;0.82;0.38;;;22.40;99.00;;;;;;5039276;28;20474;-52
2023/07/20 10:46:33;;;;;;;0.93;0.60;;;22.30;99.70;;;;;;5039327;28;20029;-53
2023/07/20 10:49:03;;;;;;;0.28;0.28;;;22.20;99.70;;;;;;5039063;28;20032;-53
2023/07/20 10:51:30;;;;;;;2.55;0.57;;;22.00;99.90;;;;;;5039185;28;20116;-51
2023/07/20 10:53:58;;;;;;;5.78;0.88;;;22.00;99.90;;;;;;5038988;28;20482;-51
2023/07/20 10:56:29;;;;;;;2.08;0.70;;;21.80;99.90;;;;;;5038889;28;20037;-53
2023/07/20 10:58:59;;;;;;;0.60;0.60;;;21.60;99.90;;;;;;5038957;28;20544;-53
2023/07/20 11:01:32;;;;;;;2.17;0.52;;;21.50;99.90;;;;;;5037511;28;20049;-53
2023/07/20 11:04:01;;;;;;;0.60;0.60;;;21.50;99.90;;;;;;5038948;28;20097;-52
2023/07/20 11:06:27;;;;;;;0.50;0.50;;;21.40;99.90;;;;;;5039091;28;20018;-51
2023/07/20 11:09:03;;;;;;;0.77;0.47;;;21.50;99.90;;;;;;5037479;28;20029;-50
2023/07/20 11:11:30;;;;;;;1.67;0.50;;;21.60;99.90;;;;;;5039477;28;20392;-54
2023/07/20 11:13:57;;;;;;;;;;;22.00;99.90;;;;;;5055899;28;20025;-49
2023/07/20 11:16:45;;;;;;;0.43;0.40;;;22.40;99.90;;;;;;5077461;28;19908;-54
2023/07/20 11:19:25;;;;;;;0.55;0.52;;;22.40;99.50;;;;;;5077481;28;20036;-52
2023/07/20 11:21:55;;;;;;;2.05;0.43;;;22.30;99.40;;;;;;5077487;28;20558;-56
2023/07/20 11:24:21;;;;;;;0.50;0.50;;;22.50;99.60;;;;;;5063339;28;20493;-53
2023/07/20 11:26:52;;;;;;;2.38;0.55;;;22.60;99.20;;;;;;5057128;28;20055;-49
2023/07/20 11:29:20;;;;;;;0.60;0.60;;;22.90;99.80;;;;;;5055157;28;20021;-54
2023/07/20 11:31:47;;;;;;;0.68;0.30;;;23.20;99.10;;;;;;5056348;28;20029;-52
2023/07/20 11:34:18;;;;;;;1.08;0.40;;;23.10;98.80;;;;;;5052543;28;20490;-48
2023/07/20 11:36:46;;;;;;;0.50;0.40;;;23.20;98.90;;;;;;5051426;28;20466;-52
2023/07/20 11:39:15;;;;;;;2.35;0.50;;;22.90;98.70;;;;;;5050204;28;20043;-52
2023/07/20 11:41:47;;;;;;;0.40;0.40;;;22.50;98.10;;;;;;5054907;28;20036;-53
2023/07/20 11:44:14;;;;;;;2.72;0.30;;;22.10;99.40;;;;;;5049966;28;20028;-50
2023/07/20 11:46:42;;;;;;;0.30;0.30;;;21.80;99.20;;;;;;5055084;28;20025;-52
2023/07/20 11:49:08;;;;;;;0.28;0.28;;;21.50;99.30;;;;;;5052363;28;20101;-50
2023/07/20 11:51:35;;;;;;;1.40;0.50;;;21.60;99.90;;;;;;5054085;28;20393;-51
2023/07/20 11:54:02;;;;;;;2.17;0.40;;;21.90;99.90;;;;;;5047463;28;20017;-50
2023/07/20 11:56:28;;;;;;;0.40;0.40;;;21.90;98.80;;;;;;5049741;28;20033;-53
2023/07/20 11:59:01;;;;;;;1.15;0.52;;;22.00;99.90;;;;;;5055270;28;20424;-52
2023/07/20 12:01:29;;;;;;;2.28;0.52;;;22.30;99.70;;;;;;5051863;28;20036;-53
2023/07/20 12:03:59;;;;;;;0.82;0.50;;;22.70;99.90;;;;;;5053321;28;20052;-51
2023/07/20 12:06:25;;;;;;;0.50;0.50;;;23.00;99.20;;;;;;5052027;28;20060;-50
2023/07/20 12:08:55;;;;;;;1.45;0.60;;;23.40;99.40;;;;;;5051734;28;20025;-52
2023/07/20 12:11:32;;;;;;;0.95;0.80;;;23.80;98.80;;;;;;5051431;28;20393;-53
2023/07/20 12:13:58;;;;;;;1.25;0.43;;;24.00;98.80;;;;;;5053911;28;20029;-51
2023/07/20 12:16:27;;;;;;;0.60;0.60;;;24.00;98.30;;;;;;5052368;28;20040;-53
2023/07/20 12:19:03;;;;;;;0.75;0.60;;;23.70;98.60;;;;;;5054670;28;20499;-52
2023/07/20 12:21:29;;;;;;;0.30;0.30;;;23.50;98.30;;;;;;5051468;28;20485;-58
2023/07/20 12:23:58;;;;;;;1.33;0.60;;;23.20;98.20;;;;;;5051638;28;20500;-51
2023/07/20 12:26:25;;;;;;;4.93;0.50;;;22.90;98.30;;;;;;5054455;28;20097;-53
2023/07/20 12:28:51;;;;;;;0.45;0.45;;;22.30;99.10;;;;;;5046093;28;20105;-52
2023/07/20 12:31:16;;;;;;;0.98;0.50;;;21.80;99.90;;;;;;5039615;28;20104;-52
2023/07/20 12:33:42;;;;;;;2.65;0.50;;;21.60;99.90;;;;;;5052502;28;20094;-50
2023/07/20 12:36:09;;;;;;;0.77;0.77;;;21.30;99.90;;;;;;5054381;28;20112;-50
2023/07/20 12:38:35;;;;;;;3.22;0.90;;;21.10;99.90;;;;;;5052250;28;20035;-50
2023/07/20 12:41:02;;;;;;;4.43;2.25;;;20.90;99.90;;;;;;5050031;28;20021;-53
2023/07/20 12:43:28;;;;;;;1.05;0.70;;;20.80;99.90;;;;;;5052022;28;20021;-51
2023/07/20 12:45:54;;;;;;;1.00;0.70;;;20.90;99.90;;;;;;5052752;28;20021;-52
2023/07/20 12:48:20;;;;;;;2.08;0.60;;;21.10;99.90;;;;;;5052838;28;20025;-52
2023/07/20 12:50:46;;;;;;;1.67;0.60;;;21.10;99.90;;;;;;5051375;28;20033;-48